Сообщение об ошибке

  • Warning: ini_set(): Headers already sent. You cannot change the session module's ini settings at this time in drupal_environment_initialize() (line 699 of /home/a/auditpro/2.auditpro.beget.tech/public_html/st/includes/bootstrap.inc).
  • Warning: ini_set(): Headers already sent. You cannot change the session module's ini settings at this time in drupal_environment_initialize() (line 700 of /home/a/auditpro/2.auditpro.beget.tech/public_html/st/includes/bootstrap.inc).
  • Warning: ini_set(): Headers already sent. You cannot change the session module's ini settings at this time in drupal_environment_initialize() (line 701 of /home/a/auditpro/2.auditpro.beget.tech/public_html/st/includes/bootstrap.inc).
  • Warning: ini_set(): Headers already sent. You cannot change the session module's ini settings at this time in drupal_environment_initialize() (line 704 of /home/a/auditpro/2.auditpro.beget.tech/public_html/st/includes/bootstrap.inc).
  • Warning: ini_set(): Headers already sent. You cannot change the session module's ini settings at this time in drupal_environment_initialize() (line 706 of /home/a/auditpro/2.auditpro.beget.tech/public_html/st/includes/bootstrap.inc).
  • Warning: ini_set(): Headers already sent. You cannot change the session module's ini settings at this time in include_once() (line 290 of /home/a/auditpro/2.auditpro.beget.tech/public_html/st/sites/default/settings.php).
  • Warning: ini_set(): Headers already sent. You cannot change the session module's ini settings at this time in include_once() (line 291 of /home/a/auditpro/2.auditpro.beget.tech/public_html/st/sites/default/settings.php).
  • Warning: ini_set(): Headers already sent. You cannot change the session module's ini settings at this time in include_once() (line 299 of /home/a/auditpro/2.auditpro.beget.tech/public_html/st/sites/default/settings.php).
  • Warning: ini_set(): Headers already sent. You cannot change the session module's ini settings at this time in include_once() (line 306 of /home/a/auditpro/2.auditpro.beget.tech/public_html/st/sites/default/settings.php).
  • Warning: ini_set(): Headers already sent. You cannot change the session module's ini settings at this time in drupal_settings_initialize() (line 826 of /home/a/auditpro/2.auditpro.beget.tech/public_html/st/includes/bootstrap.inc).
  • Warning: ini_set(): Headers already sent. You cannot change the session module's ini settings at this time in drupal_settings_initialize() (line 835 of /home/a/auditpro/2.auditpro.beget.tech/public_html/st/includes/bootstrap.inc).
  • Warning: session_name(): Cannot change session name when headers already sent in drupal_settings_initialize() (line 838 of /home/a/auditpro/2.auditpro.beget.tech/public_html/st/includes/bootstrap.inc).

Храброво

СКИДКИ НА СМАРТФОНЫ!

Карта отелей и гостиниц, располагающихся рядом с аэропортом Храброво :

Храброво
Калининград
Калининградская область 54° 53' 24" N, 20° 35' 33" E
Код аэродрома ИКАО
UMKK
Код аэродрома RU
УМКК
Координаты
N54.89000° E020.59250°
Превышение над уровнем моря
13
Основная полоса
06/24
Курс магнитный
060,4/240,4
Длина основной ВПП
2500
Ширина основной ВПП
45
Покрытие основной ВПП
Твёрдое (асфальтобетон)
Освещение ВПП
Постоянное
Тип: 
Аэродром
Класс аэродрома: 
Международный
Принадлежность: 
ГА
Статус: 
Действующий
Страна: 
Россия
Регион: 
Калининградская область
Город: 
Калининград
Дополнительная информация: 
Совместного базирования (ФАВТ, МО РФ, ФСБ, ФТС, МЧС, ЛукОйл). Нкр.=(500)м. Военный индекс: XMKK / ЬМКК. В 2017-2018 г. проводится реконструкция, ВПП удлиняется на восток, возможны ограничения полетов. БПРМ-24 и ИЛС не работают. Заход VOR/DME.
Схемы аэропортов: 
Погода: 

Авиационная погода в Храброво

Регион: 
Погода METAR: 
UMKK 301930Z 26009MPS 9999 BKN018CB 05/03 Q0993 R24/290095 NOSIG RMK QFE744/0992
Время наблюдения
2023-01-30T19:30:00Z
Температура C
5.0
Точка росы
3.0
Направление ветра
260
Скорость ветра (узлы)
17
Метео видимость
6.21
Облачность
BKN
Нижняя граница облачности (футы)
1800
Явления погоды
Условия полета
MVFR
Аэропорт подробнее: 
BKN – значительная (рассеянная, разорванная) облачность;

Скидки на навигаторы!

Найти трансфер

С помощью этой формы Вы можете найти трансфер из аэропорта Храброво в город, аэропорт или вокзал:

Погода в аэропортах:

Авиационная погода в Москве - Остафьево

Погода METAR: 
UUMO 301930Z 21006MPS 6000 -SN OVC019 M01/M04 Q0996 R25/520148 NOSIG RMK QFE732/0976
Время наблюдения
2023-01-30T19:30:00Z
Температура C
-1.0
Точка росы
-4.0
Направление ветра
210
Скорость ветра (узлы)
12
Метео видимость
3.73
Облачность
OVC
Нижняя граница облачности (футы)
1900
Явления погоды
-SN
Условия полета
MVFR
Аэропорт подробнее: 
OVC – сплошная облачность;
-SN – слабый снег;

Авиационная погода в Алматы

Регион: 
Погода METAR: 
UAAA 301930Z 20002MPS 0600 R23R/1700 R23L/1800N FZFG FEW100 SCT200 M09/M11 Q1019 NOSIG
Время наблюдения
2023-01-30T19:30:00Z
Температура C
-9.0
Точка росы
-11.0
Направление ветра
200
Скорость ветра (узлы)
4
Метео видимость
0.37
Облачность
FEW
SCT
Нижняя граница облачности (футы)
10000
20000
Явления погоды
FZFG
Условия полета
LIFR
Аэропорт подробнее: 
FEW – незначительная облачность; SCT – разбросанная отдельная облачность;
FZFG - переохлаждённый туман;

Авиационная погода во Владикавказе

Регион: 
Погода METAR: 
URMO 301930Z AUTO 11002MPS 5000 BR ///028/// 00/M00 Q1013 RMK QFE715/0954
Время наблюдения
2023-01-30T19:30:00Z
Температура C
0.0
Точка росы
0.0
Направление ветра
110
Скорость ветра (узлы)
4
Метео видимость
3.11
Облачность
Нижняя граница облачности (футы)
Явления погоды
BR
Условия полета
Аэропорт подробнее: 
BR – дымка (видимость от 1 до 9 км);

Авиационная погода в Астане

Регион: 
Погода METAR: 
UACC 301930Z 10002MPS 060V130 2200 BR NSC M24/M27 Q1024 TEMPO 1000 BR RMK QFE736/0982
Время наблюдения
2023-01-30T19:30:00Z
Температура C
-24.0
Точка росы
-27.0
Направление ветра
100
Скорость ветра (узлы)
4
Метео видимость
1.37
Облачность
CLR
Нижняя граница облачности (футы)
Явления погоды
BR
Условия полета
IFR
Аэропорт подробнее: 
CLR — нет облаков ниже 3000 м
BR – дымка (видимость от 1 до 9 км);